Weather at Déline Airport

Public forecast

Using degrees Celsius for public forecast. Weather courtesy of forecast.io.

Current aviation weather report (METAR) for Déline Airport

Report is more than 6 hours old.

Retrieved 2021/04/11 22:00 UTC (15 hours ago):

CYWJ 112200Z 18005KT 120V240 40SM FEW020 M15/M24 A3044 RMK SC1 SC TR LAST STFD OBS/NXT 121300 UTC SLP338

Aviation forecast (TAF) for Déline Airport

Forecast is more than 12 hours old.

Retrieved 2021/04/10 18:00 UTC (2 days ago):

TAF CYWJ 101739Z 1018/1023 12006KT P6SM SCT040 BKN080 TEMPO 1018/1023 5SM -SN BKN040 RMK NXT FCST WILL BE ISSUED AT 121415Z